createdAt,value
2023-01-07T00:00:20.343Z,0
2023-01-07T00:01:24.250Z,0
2023-01-07T00:03:30.711Z,0
2023-01-07T00:05:36.317Z,0
2023-01-07T00:06:40.041Z,0
2023-01-07T00:07:43.645Z,0
2023-01-07T00:09:01.589Z,0
2023-01-07T00:10:05.542Z,0
2023-01-07T00:11:08.983Z,0
2023-01-07T00:13:17.215Z,0
2023-01-07T00:14:20.385Z,0
2023-01-07T00:16:27.701Z,0
2023-01-07T00:18:34.300Z,0
2023-01-07T00:20:40.278Z,0
2023-01-07T00:21:43.780Z,0
2023-01-07T00:22:46.863Z,0
2023-01-07T00:23:50.433Z,0
2023-01-07T00:25:55.753Z,0
2023-01-07T00:26:58.458Z,0
2023-01-07T00:28:02.493Z,0
2023-01-07T00:29:06.593Z,0
2023-01-07T00:31:13.271Z,0
2023-01-07T00:32:16.940Z,0
2023-01-07T00:33:19.728Z,0
2023-01-07T00:34:22.434Z,0
2023-01-07T00:36:28.352Z,0
2023-01-07T00:38:35.140Z,0
2023-01-07T00:39:38.434Z,0
2023-01-07T00:41:44.084Z,0
2023-01-07T00:43:50.858Z,0
2023-01-07T00:45:57.765Z,0
2023-01-07T00:47:01.893Z,0
2023-01-07T00:49:07.750Z,0
2023-01-07T00:51:13.398Z,0
2023-01-07T00:53:19.806Z,0
2023-01-07T00:54:23.591Z,0
2023-01-07T00:56:30.756Z,0
2023-01-07T00:58:36.356Z,0
2023-01-07T01:00:44.740Z,0
2023-01-07T01:01:48.967Z,0
2023-01-07T01:03:55.951Z,0
2023-01-07T01:06:01.368Z,0
2023-01-07T01:08:08.025Z,0
2023-01-07T01:09:10.482Z,0
2023-01-07T01:11:15.535Z,0
2023-01-07T01:13:21.380Z,0
2023-01-07T01:15:29.202Z,0
2023-01-07T01:16:33.660Z,0
2023-01-07T01:17:36.448Z,0
2023-01-07T01:18:40.249Z,0
2023-01-07T01:20:47.048Z,0
2023-01-07T01:21:50.415Z,0
2023-01-07T01:22:53.146Z,0
2023-01-07T01:23:56.238Z,0
2023-01-07T01:26:01.820Z,0
2023-01-07T01:27:04.930Z,0
2023-01-07T01:28:08.042Z,0
2023-01-07T01:29:11.126Z,0
2023-01-07T01:31:18.097Z,0
2023-01-07T01:33:24.932Z,0
2023-01-07T01:34:28.052Z,0
2023-01-07T01:36:34.495Z,0
2023-01-07T01:38:40.493Z,0
2023-01-07T01:40:45.744Z,0
2023-01-07T01:41:49.189Z,0
2023-01-07T01:43:54.855Z,0
2023-01-07T01:46:01.269Z,0
2023-01-07T01:47:05.835Z,0
2023-01-07T01:49:13.048Z,0
2023-01-07T01:51:19.860Z,0
2023-01-07T01:52:22.945Z,0
2023-01-07T01:53:27.319Z,0
2023-01-07T01:54:30.782Z,0
2023-01-07T01:56:36.602Z,0
2023-01-07T01:58:42.804Z,0
2023-01-07T01:59:45.935Z,0
2023-01-07T02:01:54.385Z,0
2023-01-07T02:04:02.148Z,0
2023-01-07T02:06:08.470Z,0
2023-01-07T02:07:11.470Z,0
2023-01-07T02:09:17.594Z,0
2023-01-07T02:11:23.837Z,0
2023-01-07T02:12:26.917Z,0
2023-01-07T02:14:32.909Z,0
2023-01-07T02:15:35.907Z,0
2023-01-07T02:17:42.515Z,0
2023-01-07T02:18:45.943Z,0
2023-01-07T02:19:49.311Z,0
2023-01-07T02:20:52.083Z,0
2023-01-07T02:22:57.691Z,0
2023-01-07T02:24:00.407Z,0
2023-01-07T02:25:02.923Z,0
2023-01-07T02:26:05.738Z,0
2023-01-07T02:28:11.552Z,0
2023-01-07T02:29:14.804Z,0
2023-01-07T02:31:21.463Z,0
2023-01-07T02:32:24.594Z,0
2023-01-07T02:34:31.845Z,0
2023-01-07T02:35:35.280Z,0
2023-01-07T02:37:41.577Z,0
2023-01-07T02:39:47.450Z,0
2023-01-07T02:40:50.175Z,0
2023-01-07T02:42:57.067Z,0
2023-01-07T02:45:03.442Z,0
2023-01-07T02:46:06.804Z,0
2023-01-07T02:48:12.953Z,0
2023-01-07T02:50:20.033Z,0
2023-01-07T02:51:24.081Z,0
2023-01-07T02:53:30.546Z,0
2023-01-07T02:55:37.010Z,0
2023-01-07T02:56:40.026Z,0
2023-01-07T02:58:46.744Z,0
2023-01-07T03:00:54.062Z,0
2023-01-07T03:01:57.740Z,0
2023-01-07T03:04:04.945Z,0
2023-01-07T03:05:08.588Z,0
2023-01-07T03:07:16.304Z,0
2023-01-07T03:09:22.959Z,0
2023-01-07T03:10:26.013Z,0
2023-01-07T03:12:32.739Z,0
2023-01-07T03:14:38.890Z,0
2023-01-07T03:16:45.260Z,0
2023-01-07T03:17:47.725Z,0
2023-01-07T03:19:54.235Z,0
2023-01-07T03:22:01.016Z,0
2023-01-07T03:23:05.412Z,0
2023-01-07T03:25:11.900Z,0
2023-01-07T03:27:16.937Z,0
2023-01-07T03:29:23.245Z,0
2023-01-07T03:30:26.061Z,0
2023-01-07T03:32:31.120Z,0
2023-01-07T03:33:34.841Z,0
2023-01-07T03:35:41.062Z,0
2023-01-07T03:37:48.793Z,0
2023-01-07T03:39:55.495Z,0
2023-01-07T03:40:58.694Z,0
2023-01-07T03:43:04.690Z,0
2023-01-07T03:45:10.811Z,0
2023-01-07T03:47:17.426Z,0
2023-01-07T03:48:20.810Z,0
2023-01-07T03:50:27.026Z,0
2023-01-07T03:52:33.029Z,0
2023-01-07T03:54:40.622Z,0
2023-01-07T03:55:44.064Z,0
2023-01-07T03:57:50.055Z,0
2023-01-07T03:59:55.868Z,0
2023-01-07T04:02:03.822Z,0
2023-01-07T04:03:07.253Z,0
2023-01-07T04:04:11.173Z,0
2023-01-07T04:05:14.635Z,0
2023-01-07T04:07:21.109Z,0
2023-01-07T04:08:24.290Z,0
2023-01-07T04:09:28.124Z,0
2023-01-07T04:10:32.482Z,0
2023-01-07T04:12:38.990Z,0
2023-01-07T04:14:45.385Z,0
2023-01-07T04:15:48.164Z,0
2023-01-07T04:17:54.639Z,0
2023-01-07T04:20:02.160Z,0
2023-01-07T04:22:08.927Z,0
2023-01-07T04:23:12.258Z,0
2023-01-07T04:25:18.837Z,0
2023-01-07T04:27:26.498Z,0
2023-01-07T04:29:32.058Z,0
2023-01-07T04:30:36.077Z,0
2023-01-07T04:32:41.929Z,0
2023-01-07T04:34:46.791Z,0
2023-01-07T04:36:53.559Z,0
2023-01-07T04:37:56.659Z,0
2023-01-07T04:40:03.229Z,0
2023-01-07T04:42:11.042Z,0
2023-01-07T04:44:16.790Z,0
2023-01-07T04:45:19.317Z,0
2023-01-07T04:47:26.155Z,0
2023-01-07T04:49:32.107Z,0
2023-01-07T04:51:38.255Z,0
2023-01-07T04:52:41.609Z,0
2023-01-07T04:54:47.505Z,0
2023-01-07T04:56:54.714Z,0
2023-01-07T04:59:02.140Z,0
2023-01-07T05:00:05.344Z,0
2023-01-07T05:01:09.080Z,0
2023-01-07T05:02:12.607Z,0
2023-01-07T05:04:18.424Z,0
2023-01-07T05:05:21.175Z,0
2023-01-07T05:06:24.554Z,0
2023-01-07T05:07:27.630Z,0
2023-01-07T05:09:33.441Z,0
2023-01-07T05:10:36.831Z,0
2023-01-07T05:11:40.072Z,0
2023-01-07T05:12:43.672Z,0
2023-01-07T05:14:49.866Z,0
2023-01-07T05:15:52.609Z,0
2023-01-07T05:16:55.266Z,0
2023-01-07T05:17:58.566Z,0
2023-01-07T05:20:04.752Z,0
2023-01-07T05:22:11.233Z,0
2023-01-07T05:23:14.546Z,0
2023-01-07T05:25:20.725Z,0
2023-01-07T05:27:26.848Z,0
2023-01-07T05:29:33.925Z,0
2023-01-07T05:30:37.085Z,0
2023-01-07T05:32:42.631Z,0
2023-01-07T05:34:48.569Z,0
2023-01-07T05:36:54.279Z,0
2023-01-07T05:37:57.751Z,0
2023-01-07T05:40:03.858Z,0
2023-01-07T05:42:09.807Z,0
2023-01-07T05:44:16.433Z,0
2023-01-07T05:45:20.042Z,0
2023-01-07T05:47:25.832Z,0
2023-01-07T05:49:33.000Z,0
2023-01-07T05:51:39.256Z,0
2023-01-07T05:52:42.659Z,0
2023-01-07T05:54:47.874Z,0
2023-01-07T05:56:54.760Z,0
2023-01-07T05:59:01.091Z,0
2023-01-07T06:00:04.864Z,0
2023-01-07T06:02:11.621Z,0
2023-01-07T06:04:17.824Z,0
2023-01-07T06:06:24.269Z,0
2023-01-07T06:07:27.294Z,0
2023-01-07T06:09:33.714Z,0
2023-01-07T06:11:40.151Z,0
2023-01-07T06:13:46.200Z,0
2023-01-07T06:14:50.058Z,0
2023-01-07T06:16:57.912Z,0
2023-01-07T06:19:04.863Z,0
2023-01-07T06:21:11.324Z,0
2023-01-07T06:22:14.779Z,0
2023-01-07T06:23:17.775Z,0
2023-01-07T06:24:20.476Z,0
2023-01-07T06:26:27.069Z,0
2023-01-07T06:27:29.838Z,0
2023-01-07T06:28:33.022Z,0
2023-01-07T06:29:35.757Z,0
2023-01-07T06:31:42.977Z,0
2023-01-07T06:33:49.793Z,0
2023-01-07T06:34:53.540Z,0
2023-01-07T06:36:59.203Z,0
2023-01-07T06:39:04.720Z,0
2023-01-07T06:40:08.102Z,0
2023-01-07T06:41:11.492Z,0
2023-01-07T06:42:14.754Z,0
2023-01-07T06:44:20.481Z,0
2023-01-07T06:46:27.256Z,0
2023-01-07T06:47:30.441Z,0
2023-01-07T06:49:36.654Z,0
2023-01-07T06:51:43.529Z,0
2023-01-07T06:53:49.427Z,0
2023-01-07T06:54:52.455Z,0
2023-01-07T06:56:58.654Z,0
2023-01-07T06:59:05.069Z,0
2023-01-07T07:01:11.920Z,0
2023-01-07T07:02:16.140Z,0
2023-01-07T07:04:24.709Z,0
2023-01-07T07:06:30.455Z,0
2023-01-07T07:08:36.043Z,0
2023-01-07T07:09:39.393Z,0
2023-01-07T07:11:46.131Z,0
2023-01-07T07:13:52.471Z,0
2023-01-07T07:15:58.783Z,0
2023-01-07T07:17:02.142Z,0
2023-01-07T07:19:09.007Z,0
2023-01-07T07:21:16.531Z,0
2023-01-07T07:23:23.168Z,0
2023-01-07T07:24:26.294Z,1
2023-01-07T07:25:28.296Z,1
2023-01-07T07:26:31.397Z,1
2023-01-07T07:28:38.102Z,1
2023-01-07T07:29:41.106Z,1
2023-01-07T07:30:50.636Z,2
2023-01-07T07:31:53.864Z,2
2023-01-07T07:33:59.829Z,2
2023-01-07T07:36:07.095Z,2
2023-01-07T07:37:10.751Z,3
2023-01-07T07:39:16.316Z,3
2023-01-07T07:41:25.169Z,3
2023-01-07T07:43:31.927Z,3
2023-01-07T07:44:35.227Z,3
2023-01-07T07:46:44.314Z,4
2023-01-07T07:48:50.446Z,5
2023-01-07T07:50:56.970Z,4
2023-01-07T07:52:00.589Z,4
2023-01-07T07:53:03.610Z,5
2023-01-07T07:54:07.397Z,5
2023-01-07T07:55:28.533Z,4
2023-01-07T07:56:32.177Z,4
2023-01-07T07:58:39.135Z,5
2023-01-07T07:59:41.850Z,5
2023-01-07T08:00:44.949Z,5
2023-01-07T08:01:49.490Z,5
2023-01-07T08:03:55.436Z,6
2023-01-07T08:04:59.383Z,6
2023-01-07T08:06:03.856Z,6
2023-01-07T08:07:07.395Z,6
2023-01-07T08:09:13.457Z,8
2023-01-07T08:11:19.918Z,9
2023-01-07T08:12:22.145Z,9
2023-01-07T08:14:27.652Z,10
2023-01-07T08:16:33.775Z,11
2023-01-07T08:18:40.740Z,12
2023-01-07T08:19:44.473Z,13
2023-01-07T08:21:51.071Z,14
2023-01-07T08:23:59.106Z,14
2023-01-07T08:26:05.682Z,14
2023-01-07T08:27:08.498Z,16
2023-01-07T08:29:14.609Z,16
2023-01-07T08:31:21.845Z,16
2023-01-07T08:33:27.494Z,16
2023-01-07T08:34:30.274Z,16
2023-01-07T08:36:36.779Z,15
2023-01-07T08:38:44.744Z,13
2023-01-07T08:40:50.749Z,14
2023-01-07T08:41:54.189Z,14
2023-01-07T08:44:00.824Z,17
2023-01-07T08:46:07.099Z,13
2023-01-07T08:48:13.952Z,13
2023-01-07T08:49:16.827Z,14
2023-01-07T08:51:22.102Z,17
2023-01-07T08:53:29.050Z,19
2023-01-07T08:55:36.178Z,18
2023-01-07T08:56:39.734Z,20
2023-01-07T08:57:43.115Z,23
2023-01-07T08:58:46.215Z,22
2023-01-07T09:00:53.338Z,19
2023-01-07T09:01:57.899Z,19
2023-01-07T09:03:02.015Z,22
2023-01-07T09:04:04.781Z,23
2023-01-07T09:06:10.227Z,26
2023-01-07T09:08:16.037Z,32
2023-01-07T09:09:19.962Z,30
2023-01-07T09:11:27.018Z,29
2023-01-07T09:13:33.257Z,28
2023-01-07T09:15:39.188Z,27
2023-01-07T09:16:43.341Z,25
2023-01-07T09:18:49.540Z,31
2023-01-07T09:20:55.688Z,36
2023-01-07T09:23:02.302Z,24
2023-01-07T09:24:05.856Z,23
2023-01-07T09:26:13.912Z,19
2023-01-07T09:28:21.933Z,17
2023-01-07T09:30:27.691Z,19
2023-01-07T09:31:31.757Z,20
2023-01-07T09:33:38.267Z,27
2023-01-07T09:35:44.842Z,22
2023-01-07T09:37:51.419Z,23
2023-01-07T09:38:54.142Z,28
2023-01-07T09:41:01.109Z,26
2023-01-07T09:43:08.428Z,21
2023-01-07T09:44:11.830Z,21
2023-01-07T09:46:17.746Z,34
2023-01-07T09:48:24.817Z,40
2023-01-07T09:49:27.627Z,34
2023-01-07T09:50:30.696Z,25
2023-01-07T09:51:34.039Z,25
2023-01-07T09:53:39.925Z,37
2023-01-07T09:54:43.692Z,36
2023-01-07T09:56:15.175Z,39
2023-01-07T09:57:19.312Z,45
2023-01-07T09:59:26.359Z,43
2023-01-07T10:01:32.961Z,44
2023-01-07T10:02:37.149Z,39
2023-01-07T10:03:40.657Z,41
2023-01-07T10:04:43.713Z,39
2023-01-07T10:06:50.220Z,38
2023-01-07T10:08:32.635Z,40
2023-01-07T10:09:36.683Z,44
2023-01-07T10:10:39.958Z,47
2023-01-07T10:12:51.076Z,50
2023-01-07T10:13:54.838Z,52
2023-01-07T10:16:01.884Z,41
2023-01-07T10:18:11.061Z,31
2023-01-07T10:19:14.304Z,33
2023-01-07T10:21:21.424Z,40
2023-01-07T10:22:24.543Z,49
2023-01-07T10:24:30.988Z,68
2023-01-07T10:26:36.720Z,84
2023-01-07T10:27:40.047Z,82
2023-01-07T10:29:47.232Z,97
2023-01-07T10:31:54.223Z,125
2023-01-07T10:34:00.472Z,113
2023-01-07T10:35:03.678Z,112
2023-01-07T10:37:10.224Z,118
2023-01-07T10:39:15.478Z,140
2023-01-07T10:40:18.911Z,123
2023-01-07T10:41:22.009Z,135
2023-01-07T10:42:25.359Z,152
2023-01-07T10:43:28.832Z,181
2023-01-07T10:44:33.293Z,240
2023-01-07T10:45:36.483Z,121
2023-01-07T10:47:43.244Z,80
2023-01-07T10:48:46.968Z,141
2023-01-07T10:50:53.036Z,114
2023-01-07T10:52:59.287Z,129
2023-01-07T10:54:02.083Z,114
2023-01-07T10:56:07.609Z,118
2023-01-07T10:57:10.709Z,80
2023-01-07T10:59:18.317Z,80
2023-01-07T11:01:27.697Z,209
2023-01-07T11:03:35.813Z,84
2023-01-07T11:04:38.801Z,75
2023-01-07T11:06:44.223Z,132
2023-01-07T11:08:49.999Z,65
2023-01-07T11:09:53.136Z,75
2023-01-07T11:12:02.096Z,81
2023-01-07T11:14:08.946Z,125
2023-01-07T11:15:12.358Z,112
2023-01-07T11:17:21.122Z,188
2023-01-07T11:19:27.651Z,119
2023-01-07T11:20:31.085Z,213
2023-01-07T11:21:46.218Z,135
2023-01-07T11:22:49.949Z,80
2023-01-07T11:24:56.679Z,110
2023-01-07T11:25:59.752Z,98
2023-01-07T11:28:05.503Z,90
2023-01-07T11:30:11.105Z,171
2023-01-07T11:31:15.090Z,173
2023-01-07T11:33:22.901Z,97
2023-01-07T11:35:07.704Z,111
2023-01-07T11:36:10.161Z,121
2023-01-07T11:38:15.797Z,123
2023-01-07T11:39:18.871Z,130
2023-01-07T11:41:24.909Z,125
2023-01-07T11:43:31.383Z,130
2023-01-07T11:45:38.312Z,122
2023-01-07T11:46:41.955Z,119
2023-01-07T11:48:49.246Z,126
2023-01-07T11:50:55.263Z,132
2023-01-07T11:51:58.287Z,140
2023-01-07T11:53:01.056Z,143
2023-01-07T11:54:04.809Z,147
2023-01-07T11:56:11.023Z,183
2023-01-07T11:57:14.456Z,172
2023-01-07T11:58:32.828Z,242
2023-01-07T11:59:35.852Z,432
2023-01-07T12:01:42.010Z,418
2023-01-07T12:03:50.990Z,337
2023-01-07T12:04:54.444Z,297
2023-01-07T12:07:00.967Z,249
2023-01-07T12:09:07.768Z,236
2023-01-07T12:10:10.766Z,237
2023-01-07T12:12:17.906Z,202
2023-01-07T12:14:24.183Z,238
2023-01-07T12:15:27.288Z,274
2023-01-07T12:17:33.295Z,312
2023-01-07T12:18:36.950Z,276
2023-01-07T12:20:45.116Z,348
2023-01-07T12:21:48.335Z,194
2023-01-07T12:23:00.227Z,226
2023-01-07T12:24:03.576Z,259
2023-01-07T12:26:10.053Z,289
2023-01-07T12:27:12.635Z,355
2023-01-07T12:29:19.554Z,360
2023-01-07T12:30:22.641Z,492
2023-01-07T12:31:25.678Z,183
2023-01-07T12:32:29.361Z,158
2023-01-07T12:34:35.392Z,119
2023-01-07T12:35:39.605Z,113
2023-01-07T12:37:45.799Z,112
2023-01-07T12:38:49.338Z,105
2023-01-07T12:39:57.939Z,99
2023-01-07T12:41:01.358Z,89
2023-01-07T12:43:07.930Z,68
2023-01-07T12:44:10.378Z,61
2023-01-07T12:45:13.246Z,58
2023-01-07T12:46:16.866Z,56
2023-01-07T12:47:36.390Z,57
2023-01-07T12:48:39.970Z,56
2023-01-07T12:49:43.371Z,54
2023-01-07T12:51:50.842Z,53
2023-01-07T12:53:56.942Z,59
2023-01-07T12:55:00.032Z,62
2023-01-07T12:57:05.651Z,65
2023-01-07T12:59:50.065Z,66
2023-01-07T13:01:57.537Z,66
2023-01-07T13:03:00.709Z,70
2023-01-07T13:05:07.424Z,79
2023-01-07T13:06:11.785Z,80
2023-01-07T13:08:17.865Z,80
2023-01-07T13:10:24.528Z,83
2023-01-07T13:11:27.308Z,86
2023-01-07T13:12:48.151Z,92
2023-01-07T13:13:51.854Z,90
2023-01-07T13:15:59.204Z,84
2023-01-07T13:18:05.687Z,81
2023-01-07T13:20:12.054Z,78
2023-01-07T13:21:16.277Z,78
2023-01-07T13:23:22.812Z,80
2023-01-07T13:24:59.000Z,79
2023-01-07T13:26:01.865Z,78
2023-01-07T13:27:04.971Z,78
2023-01-07T13:29:11.465Z,76
2023-01-07T13:30:14.869Z,76
2023-01-07T13:32:22.221Z,80
2023-01-07T13:33:24.786Z,78
2023-01-07T13:34:27.695Z,74
2023-01-07T13:35:31.032Z,71
2023-01-07T13:37:38.650Z,67
2023-01-07T13:38:41.903Z,66
2023-01-07T13:40:48.076Z,60
2023-01-07T13:42:54.658Z,56
2023-01-07T13:43:57.717Z,54
2023-01-07T13:46:04.582Z,51
2023-01-07T13:47:07.315Z,49
2023-01-07T13:49:14.569Z,44
2023-01-07T13:51:21.313Z,43
2023-01-07T13:52:25.616Z,42
2023-01-07T13:53:28.491Z,41
2023-01-07T13:54:32.683Z,39
2023-01-07T13:56:39.838Z,33
2023-01-07T13:57:43.217Z,31
2023-01-07T13:59:48.699Z,26
2023-01-07T14:00:51.976Z,23
2023-01-07T14:02:59.186Z,21
2023-01-07T14:05:06.231Z,19
2023-01-07T14:06:09.725Z,19
2023-01-07T14:08:17.362Z,17
2023-01-07T14:10:23.600Z,15
2023-01-07T14:11:27.438Z,15
2023-01-07T14:12:30.456Z,15
2023-01-07T14:13:33.552Z,14
2023-01-07T14:14:36.952Z,13
2023-01-07T14:15:40.099Z,12
2023-01-07T14:16:42.653Z,12
2023-01-07T14:17:45.779Z,12
2023-01-07T14:19:52.094Z,12
2023-01-07T14:21:58.481Z,12
2023-01-07T14:23:01.915Z,12
2023-01-07T14:24:05.727Z,12
2023-01-07T14:25:09.079Z,11
2023-01-07T14:27:15.089Z,11
2023-01-07T14:28:18.095Z,11
2023-01-07T14:30:23.958Z,13
2023-01-07T14:32:31.591Z,14
2023-01-07T14:33:34.949Z,14
2023-01-07T14:35:40.780Z,13
2023-01-07T14:36:44.093Z,13
2023-01-07T14:37:47.366Z,12
2023-01-07T14:38:50.552Z,12
2023-01-07T14:40:58.108Z,10
2023-01-07T14:42:01.160Z,9
2023-01-07T14:44:08.078Z,7
2023-01-07T14:45:10.765Z,7
2023-01-07T14:46:20.700Z,7
2023-01-07T14:47:24.673Z,6
2023-01-07T14:49:31.648Z,6
2023-01-07T14:50:35.341Z,6
2023-01-07T14:52:42.098Z,6
2023-01-07T14:53:45.281Z,6
2023-01-07T14:55:53.125Z,6
2023-01-07T14:57:58.952Z,5
2023-01-07T14:59:02.689Z,5
2023-01-07T15:01:10.113Z,4
2023-01-07T15:02:13.871Z,3
2023-01-07T15:04:20.801Z,3
2023-01-07T15:06:27.915Z,2
2023-01-07T15:07:31.692Z,2
2023-01-07T15:09:37.458Z,2
2023-01-07T15:11:45.722Z,1
2023-01-07T15:12:49.070Z,1
2023-01-07T15:13:51.809Z,1
2023-01-07T15:14:54.950Z,1
2023-01-07T15:17:02.533Z,1
2023-01-07T15:18:05.930Z,1
2023-01-07T15:20:12.390Z,1
2023-01-07T15:22:17.704Z,0
2023-01-07T15:23:20.725Z,0
2023-01-07T15:25:26.645Z,0
2023-01-07T15:26:29.949Z,0
2023-01-07T15:27:34.166Z,0
2023-01-07T15:28:37.449Z,0
2023-01-07T15:30:43.993Z,0
2023-01-07T15:31:47.320Z,0
2023-01-07T15:33:55.448Z,0
2023-01-07T15:34:58.875Z,0
2023-01-07T15:36:02.262Z,0
2023-01-07T15:37:05.659Z,0
2023-01-07T15:39:11.992Z,0
2023-01-07T15:40:15.339Z,0
2023-01-07T15:42:22.566Z,0
2023-01-07T15:44:31.808Z,0
2023-01-07T15:46:39.009Z,0
2023-01-07T15:47:42.428Z,0
2023-01-07T15:49:47.622Z,0
2023-01-07T15:51:54.375Z,0
2023-01-07T15:52:57.656Z,0
2023-01-07T15:55:04.544Z,0
2023-01-07T15:57:10.873Z,0
2023-01-07T15:58:14.618Z,0
2023-01-07T16:00:22.532Z,0
2023-01-07T16:02:31.011Z,0
2023-01-07T16:04:37.737Z,0
2023-01-07T16:05:41.119Z,0
2023-01-07T16:07:47.268Z,0
2023-01-07T16:09:53.074Z,0
2023-01-07T16:10:56.416Z,0
2023-01-07T16:13:02.679Z,0
2023-01-07T16:15:10.761Z,0
2023-01-07T16:17:17.471Z,0
2023-01-07T16:18:20.777Z,0
2023-01-07T16:20:30.531Z,0
2023-01-07T16:22:36.369Z,0
2023-01-07T16:23:39.758Z,0
2023-01-07T16:24:42.543Z,0
2023-01-07T16:25:45.636Z,0
2023-01-07T16:27:52.091Z,0
2023-01-07T16:28:54.608Z,0
2023-01-07T16:31:03.261Z,0
2023-01-07T16:33:09.505Z,0
2023-01-07T16:34:12.713Z,0
2023-01-07T16:36:18.511Z,0
2023-01-07T16:38:24.319Z,0
2023-01-07T16:39:27.326Z,0
2023-01-07T16:40:30.423Z,0
2023-01-07T16:41:33.517Z,0
2023-01-07T16:43:39.471Z,0
2023-01-07T16:44:42.479Z,0
2023-01-07T16:46:50.494Z,0
2023-01-07T16:48:57.199Z,0
2023-01-07T16:50:00.660Z,0
2023-01-07T16:52:06.900Z,0
2023-01-07T16:54:14.222Z,0
2023-01-07T16:55:17.642Z,0
2023-01-07T16:57:24.163Z,0
2023-01-07T16:58:26.907Z,0
2023-01-07T17:00:33.722Z,0
2023-01-07T17:02:42.221Z,0
2023-01-07T17:04:48.959Z,0
2023-01-07T17:05:52.610Z,0
2023-01-07T17:07:58.456Z,0
2023-01-07T17:10:04.828Z,0
2023-01-07T17:11:07.772Z,0
2023-01-07T17:13:14.034Z,0
2023-01-07T17:15:20.751Z,0
2023-01-07T17:16:24.159Z,0
2023-01-07T17:18:32.435Z,0
2023-01-07T17:20:38.705Z,0
2023-01-07T17:21:42.123Z,0
2023-01-07T17:23:48.862Z,0
2023-01-07T17:25:55.695Z,0
2023-01-07T17:26:59.007Z,0
2023-01-07T17:29:05.148Z,0
2023-01-07T17:31:11.597Z,0
2023-01-07T17:32:14.191Z,0
2023-01-07T17:33:17.966Z,0
2023-01-07T17:34:25.267Z,0
2023-01-07T17:36:30.971Z,0
2023-01-07T17:38:36.957Z,0
2023-01-07T17:39:39.955Z,0
2023-01-07T17:41:46.105Z,0
2023-01-07T17:43:50.891Z,0
2023-01-07T17:45:58.435Z,0
2023-01-07T17:47:01.816Z,0
2023-01-07T17:49:09.558Z,0
2023-01-07T17:51:18.142Z,0
2023-01-07T17:53:24.463Z,0
2023-01-07T17:54:27.813Z,0
2023-01-07T17:56:34.047Z,0
2023-01-07T17:58:40.531Z,0
2023-01-07T18:00:45.920Z,0
2023-01-07T18:01:50.987Z,0
2023-01-07T18:03:58.495Z,0
2023-01-07T18:06:05.817Z,0
2023-01-07T18:08:11.237Z,0
2023-01-07T18:09:15.178Z,0
2023-01-07T18:11:21.977Z,0
2023-01-07T18:13:28.623Z,0
2023-01-07T18:15:34.453Z,0
2023-01-07T18:16:37.781Z,0
2023-01-07T18:18:44.032Z,0
2023-01-07T18:20:50.448Z,0
2023-01-07T18:22:58.176Z,0
2023-01-07T18:24:01.842Z,0
2023-01-07T18:26:08.198Z,0
2023-01-07T18:28:14.096Z,0
2023-01-07T18:30:20.068Z,0
2023-01-07T18:31:23.857Z,0
2023-01-07T18:33:30.384Z,0
2023-01-07T18:35:37.382Z,0
2023-01-07T18:37:45.824Z,0
2023-01-07T18:38:49.515Z,0
2023-01-07T18:40:56.876Z,0
2023-01-07T18:43:03.366Z,0
2023-01-07T18:45:09.591Z,0
2023-01-07T18:46:16.073Z,0
2023-01-07T18:48:24.057Z,0
2023-01-07T18:50:30.460Z,0
2023-01-07T18:52:37.888Z,0
2023-01-07T18:53:42.386Z,0
2023-01-07T18:54:45.646Z,0
2023-01-07T18:55:48.848Z,0
2023-01-07T18:57:54.972Z,0
2023-01-07T18:58:57.699Z,0
2023-01-07T19:00:00.207Z,0
2023-01-07T19:01:04.476Z,0
2023-01-07T19:03:11.371Z,0
2023-01-07T19:04:14.735Z,0
2023-01-07T19:05:17.599Z,0
2023-01-07T19:06:20.863Z,0
2023-01-07T19:08:28.040Z,0
2023-01-07T19:10:34.601Z,0
2023-01-07T19:11:38.241Z,0
2023-01-07T19:13:45.134Z,0
2023-01-07T19:15:51.562Z,0
2023-01-07T19:17:58.257Z,0
2023-01-07T19:19:01.621Z,0
2023-01-07T19:21:08.072Z,0
2023-01-07T19:23:13.776Z,0
2023-01-07T19:25:21.734Z,0
2023-01-07T19:26:24.861Z,0
2023-01-07T19:28:31.179Z,0
2023-01-07T19:30:37.361Z,0
2023-01-07T19:32:44.040Z,0
2023-01-07T19:33:46.869Z,0
2023-01-07T19:35:53.049Z,0
2023-01-07T19:37:59.830Z,0
2023-01-07T19:40:07.625Z,0
2023-01-07T19:41:11.763Z,0
2023-01-07T19:43:18.094Z,0
2023-01-07T19:45:24.110Z,0
2023-01-07T19:47:30.937Z,0
2023-01-07T19:48:33.436Z,0
2023-01-07T19:50:40.248Z,0
2023-01-07T19:52:46.990Z,0
2023-01-07T19:54:53.388Z,0
2023-01-07T19:55:56.594Z,0
2023-01-07T19:58:04.244Z,0
2023-01-07T20:00:10.872Z,0
2023-01-07T20:02:19.876Z,0
2023-01-07T20:03:23.751Z,0
2023-01-07T20:05:30.850Z,0
2023-01-07T20:07:37.230Z,0
2023-01-07T20:09:43.274Z,0
2023-01-07T20:10:46.149Z,0
2023-01-07T20:12:54.510Z,0
2023-01-07T20:15:00.655Z,0
2023-01-07T20:16:03.976Z,0
2023-01-07T20:17:06.451Z,0
2023-01-07T20:18:08.898Z,0
2023-01-07T20:20:14.092Z,0
2023-01-07T20:21:17.487Z,0
2023-01-07T20:22:20.842Z,0
2023-01-07T20:23:24.555Z,0
2023-01-07T20:25:30.715Z,0
2023-01-07T20:26:33.841Z,0
2023-01-07T20:27:37.629Z,0
2023-01-07T20:28:41.849Z,0
2023-01-07T20:30:48.730Z,0
2023-01-07T20:31:52.717Z,0
2023-01-07T20:32:55.872Z,0
2023-01-07T20:33:58.410Z,0
2023-01-07T20:36:04.226Z,0
2023-01-07T20:38:09.392Z,0
2023-01-07T20:39:12.175Z,0
2023-01-07T20:41:18.125Z,0
2023-01-07T20:43:25.027Z,0
2023-01-07T20:45:32.661Z,0
2023-01-07T20:46:36.469Z,0
2023-01-07T20:48:42.462Z,0
2023-01-07T20:50:48.710Z,0
2023-01-07T20:52:54.887Z,0
2023-01-07T20:53:58.538Z,0
2023-01-07T20:56:04.056Z,0
2023-01-07T20:58:10.593Z,0
2023-01-07T21:00:18.668Z,0
2023-01-07T21:01:23.122Z,0
2023-01-07T21:03:30.779Z,0
2023-01-07T21:05:37.201Z,0
2023-01-07T21:07:42.756Z,0
2023-01-07T21:08:46.116Z,0
2023-01-07T21:10:52.610Z,0
2023-01-07T21:12:59.181Z,0
2023-01-07T21:15:05.665Z,0
2023-01-07T21:16:10.385Z,0
2023-01-07T21:18:16.940Z,0
2023-01-07T21:20:23.330Z,0
2023-01-07T21:22:29.944Z,0
2023-01-07T21:23:32.635Z,0
2023-01-07T21:25:39.101Z,0
2023-01-07T21:27:44.713Z,0
2023-01-07T21:29:51.196Z,0
2023-01-07T21:30:54.626Z,0
2023-01-07T21:33:02.133Z,0
2023-01-07T21:35:07.155Z,0
2023-01-07T21:36:10.143Z,0
2023-01-07T21:37:13.262Z,0
2023-01-07T21:38:15.792Z,0
2023-01-07T21:40:21.899Z,0
2023-01-07T21:41:24.776Z,0
2023-01-07T21:42:28.383Z,0
2023-01-07T21:43:33.372Z,0
2023-01-07T21:45:45.442Z,0
2023-01-07T21:47:58.969Z,0
2023-01-07T21:49:05.258Z,0
2023-01-07T21:51:15.444Z,0
2023-01-07T21:53:24.725Z,0
2023-01-07T21:55:30.613Z,0
2023-01-07T21:56:33.798Z,0
2023-01-07T21:57:37.623Z,0
2023-01-07T21:58:41.074Z,0
2023-01-07T22:00:48.083Z,0
2023-01-07T22:01:52.977Z,0
2023-01-07T22:02:56.575Z,0
2023-01-07T22:04:02.046Z,0
2023-01-07T22:06:08.749Z,0
2023-01-07T22:07:12.152Z,0
2023-01-07T22:08:15.237Z,0
2023-01-07T22:09:17.952Z,0
2023-01-07T22:11:24.191Z,0
2023-01-07T22:12:27.215Z,0
2023-01-07T22:13:30.645Z,0
2023-01-07T22:14:33.413Z,0
2023-01-07T22:16:41.026Z,0
2023-01-07T22:18:47.654Z,0
2023-01-07T22:19:52.092Z,0
2023-01-07T22:21:57.983Z,0
2023-01-07T22:24:04.385Z,0
2023-01-07T22:26:10.898Z,0
2023-01-07T22:27:14.273Z,0
2023-01-07T22:29:22.436Z,0
2023-01-07T22:31:29.248Z,0
2023-01-07T22:33:35.087Z,0
2023-01-07T22:34:39.139Z,0
2023-01-07T22:36:49.817Z,0
2023-01-07T22:38:57.519Z,0
2023-01-07T22:41:04.436Z,0
2023-01-07T22:42:07.635Z,0
2023-01-07T22:44:13.697Z,0
2023-01-07T22:46:20.080Z,0
2023-01-07T22:47:23.367Z,0
2023-01-07T22:49:29.328Z,0
2023-01-07T22:51:40.383Z,0
2023-01-07T22:53:46.101Z,0
2023-01-07T22:54:49.629Z,0
2023-01-07T22:56:55.785Z,0
2023-01-07T22:59:01.910Z,0
2023-01-07T23:01:08.296Z,0
2023-01-07T23:02:11.638Z,0
2023-01-07T23:04:16.908Z,0
2023-01-07T23:06:21.971Z,0
2023-01-07T23:08:28.875Z,0
2023-01-07T23:09:31.326Z,0
2023-01-07T23:13:45.486Z,0
2023-01-07T23:15:52.410Z,0
2023-01-07T23:16:55.841Z,0
2023-01-07T23:19:02.477Z,0
2023-01-07T23:21:09.364Z,0
2023-01-07T23:23:31.446Z,0
2023-01-07T23:25:38.609Z,0
2023-01-07T23:26:42.176Z,0
2023-01-07T23:28:48.667Z,0
2023-01-07T23:30:54.751Z,0
2023-01-07T23:33:02.462Z,0
2023-01-07T23:34:05.888Z,0
2023-01-07T23:36:12.189Z,0
2023-01-07T23:38:20.009Z,0
2023-01-07T23:40:26.704Z,0
2023-01-07T23:41:29.531Z,0
2023-01-07T23:43:36.053Z,0
2023-01-07T23:45:42.549Z,0
2023-01-07T23:47:49.467Z,0
2023-01-07T23:48:52.292Z,0
2023-01-07T23:50:58.402Z,0
2023-01-07T23:53:05.816Z,0
2023-01-07T23:55:13.439Z,0
2023-01-07T23:56:16.632Z,0
2023-01-07T23:57:19.442Z,0
2023-01-07T23:58:22.134Z,0
